createdAt,value
2018-06-28T00:02:33.261Z,13.80
2018-06-28T00:05:34.975Z,8.43
2018-06-28T00:08:36.414Z,10.83
2018-06-28T00:11:39.858Z,9.77
2018-06-28T00:14:41.870Z,9.90
2018-06-28T00:17:44.924Z,10.40
2018-06-28T00:20:47.269Z,7.80
2018-06-28T00:23:51.051Z,11.10
2018-06-28T00:26:52.684Z,9.63
2018-06-28T00:29:54.362Z,10.67
2018-06-28T00:32:55.899Z,12.80
2018-06-28T00:35:57.766Z,14.97
2018-06-28T00:38:59.323Z,9.67
2018-06-28T00:42:00.913Z,13.60
2018-06-28T00:45:07.107Z,8.70
2018-06-28T00:48:10.214Z,8.50
2018-06-28T00:51:12.075Z,10.23
2018-06-28T00:54:13.674Z,10.93
2018-06-28T00:57:15.168Z,11.40
2018-06-28T01:00:16.923Z,10.60
2018-06-28T01:03:18.450Z,11.07
2018-06-28T01:06:20.304Z,8.87
2018-06-28T01:09:24.037Z,8.43
2018-06-28T01:12:25.781Z,6.37
2018-06-28T01:15:27.291Z,6.97
2018-06-28T01:18:29.194Z,7.30
2018-06-28T01:21:30.652Z,7.60
2018-06-28T01:24:32.225Z,9.30
2018-06-28T01:27:35.113Z,12.97
2018-06-28T01:30:36.872Z,11.33
2018-06-28T01:33:44.417Z,15.93
2018-06-28T01:36:46.497Z,14.07
2018-06-28T01:39:47.971Z,16.67
2018-06-28T01:43:56.702Z,19.43
2018-06-28T01:46:58.145Z,17.17
2018-06-28T01:49:59.797Z,15.53
2018-06-28T01:53:01.476Z,14.53
2018-06-28T01:56:03.263Z,15.63
2018-06-28T01:59:04.850Z,14.60
2018-06-28T02:02:06.647Z,13.20
2018-06-28T02:05:08.196Z,12.37
2018-06-28T02:08:10.043Z,11.73
2018-06-28T02:11:11.538Z,11.87
2018-06-28T02:14:13.298Z,13.17
2018-06-28T02:17:14.858Z,13.77
2018-06-28T02:20:16.499Z,13.03
2018-06-28T02:23:18.224Z,11.97
2018-06-28T02:26:19.855Z,12.73
2018-06-28T02:29:21.406Z,14.33
2018-06-28T02:32:22.997Z,14.07
2018-06-28T02:35:24.548Z,11.87
2018-06-28T02:38:26.314Z,9.20
2018-06-28T02:41:27.955Z,12.37
2018-06-28T02:44:29.591Z,13.70
2018-06-28T02:47:31.365Z,13.33
2018-06-28T02:50:32.946Z,10.43
2018-06-28T02:53:34.478Z,16.30
2018-06-28T02:56:36.374Z,15.37
2018-06-28T02:59:37.892Z,13.53
2018-06-28T03:02:39.672Z,12.17
2018-06-28T03:05:41.231Z,11.67
2018-06-28T03:08:42.975Z,9.07
2018-06-28T03:11:44.544Z,10.80
2018-06-28T03:14:46.307Z,9.27
2018-06-28T03:17:47.896Z,6.87
2018-06-28T03:20:49.714Z,6.30
2018-06-28T03:23:51.131Z,7.50
2018-06-28T03:26:52.846Z,7.10
2018-06-28T03:29:54.491Z,3.23
2018-06-28T03:32:56.296Z,3.70
2018-06-28T03:35:58.911Z,4.20
2018-06-28T03:39:00.744Z,5.00
2018-06-28T03:42:02.305Z,5.50
2018-06-28T03:45:04.002Z,7.67
2018-06-28T03:48:05.618Z,4.93
2018-06-28T03:51:07.473Z,3.70
2018-06-28T03:54:08.901Z,3.63
2018-06-28T03:57:10.773Z,3.83
2018-06-28T04:00:12.367Z,4.63
2018-06-28T04:03:14.147Z,4.50
2018-06-28T04:06:15.652Z,4.27
2018-06-28T04:09:17.444Z,4.43
2018-06-28T04:12:18.780Z,3.80
2018-06-28T04:15:20.574Z,3.93
2018-06-28T04:18:22.342Z,3.97
2018-06-28T04:21:24.170Z,4.07
2018-06-28T04:24:25.829Z,4.07
2018-06-28T04:27:27.646Z,4.43
2018-06-28T04:30:29.289Z,4.30
2018-06-28T04:33:31.222Z,3.60
2018-06-28T04:36:32.658Z,3.90
2018-06-28T04:39:34.366Z,4.30
2018-06-28T04:42:36.019Z,5.03
2018-06-28T04:45:37.802Z,7.63
2018-06-28T04:48:39.464Z,16.10
2018-06-28T04:51:41.385Z,16.03
2018-06-28T04:54:42.900Z,15.27
2018-06-28T04:57:44.570Z,14.10
2018-06-28T05:00:47.407Z,14.47
2018-06-28T05:03:49.139Z,14.37
2018-06-28T05:06:50.718Z,14.47
2018-06-28T05:09:52.616Z,11.47
2018-06-28T05:12:54.815Z,12.60
2018-06-28T05:15:56.670Z,11.53
2018-06-28T05:18:58.228Z,11.23
2018-06-28T05:22:00.041Z,9.90
2018-06-28T05:25:01.682Z,10.43
2018-06-28T05:28:03.536Z,10.37
2018-06-28T05:31:05.107Z,11.77
2018-06-28T05:34:06.815Z,10.73
2018-06-28T05:37:08.477Z,9.30
2018-06-28T05:40:10.249Z,7.80
2018-06-28T05:43:11.830Z,7.60
2018-06-28T05:46:13.745Z,9.30
2018-06-28T05:49:15.423Z,9.90
2018-06-28T05:52:17.119Z,9.80
2018-06-28T05:55:18.743Z,10.37
2018-06-28T05:58:20.445Z,11.27
2018-06-28T06:01:21.838Z,10.07
2018-06-28T06:04:23.802Z,9.20
2018-06-28T06:07:25.192Z,8.70
2018-06-28T06:10:27.012Z,7.70
2018-06-28T06:13:28.435Z,7.13
2018-06-28T06:16:30.196Z,7.03
2018-06-28T06:19:31.833Z,7.00
2018-06-28T06:22:33.651Z,7.00
2018-06-28T06:25:35.261Z,6.70
2018-06-28T06:28:37.006Z,6.27
2018-06-28T06:31:38.759Z,7.90
2018-06-28T06:34:41.196Z,6.80
2018-06-28T06:37:43.097Z,6.50
2018-06-28T06:40:44.819Z,5.70
2018-06-28T06:43:46.337Z,5.33
2018-06-28T06:46:48.080Z,5.10
2018-06-28T06:49:49.704Z,5.37
2018-06-28T06:52:51.410Z,4.90
2018-06-28T06:55:52.995Z,4.33
2018-06-28T06:58:54.914Z,4.30
2018-06-28T07:01:56.447Z,4.90
2018-06-28T07:04:59.221Z,4.93
2018-06-28T07:08:00.796Z,4.90
2018-06-28T07:11:02.613Z,5.50
2018-06-28T07:14:04.084Z,5.57
2018-06-28T07:17:05.881Z,5.27
2018-06-28T07:20:07.409Z,6.00
2018-06-28T07:23:09.378Z,5.80
2018-06-28T07:26:11.046Z,5.60
2018-06-28T07:29:12.680Z,5.80
2018-06-28T07:32:14.297Z,7.17
2018-06-28T07:35:16.328Z,6.87
2018-06-28T07:38:17.987Z,7.17
2018-06-28T07:41:19.767Z,7.73
2018-06-28T07:44:21.332Z,6.87
2018-06-28T07:47:23.056Z,7.13
2018-06-28T07:50:24.659Z,8.60
2018-06-28T07:53:26.474Z,8.50
2018-06-28T07:56:27.929Z,9.30
2018-06-28T07:59:29.822Z,8.10
2018-06-28T08:02:31.381Z,7.70
2018-06-28T08:05:33.204Z,8.73
2018-06-28T08:08:34.919Z,10.17
2018-06-28T08:11:36.758Z,8.10
2018-06-28T08:14:38.318Z,8.70
2018-06-28T08:17:40.043Z,9.43
2018-06-28T08:20:41.641Z,8.70
2018-06-28T08:23:43.451Z,8.63
2018-06-28T08:26:44.903Z,9.67
2018-06-28T08:29:46.792Z,9.37
2018-06-28T08:32:48.360Z,8.57
2018-06-28T08:35:49.983Z,8.50
2018-06-28T08:38:52.652Z,8.07
2018-06-28T08:41:54.285Z,8.73
2018-06-28T08:44:55.927Z,8.70
2018-06-28T08:47:57.664Z,9.00
2018-06-28T08:50:59.185Z,8.97
2018-06-28T08:54:01.230Z,7.80
2018-06-28T08:57:02.771Z,7.80
2018-06-28T09:00:04.420Z,8.67
2018-06-28T09:03:05.887Z,8.03
2018-06-28T09:06:07.830Z,7.57
2018-06-28T09:09:09.359Z,8.10
2018-06-28T09:12:11.017Z,8.87
2018-06-28T09:15:12.859Z,11.60
2018-06-28T09:18:14.622Z,10.57
2018-06-28T09:21:17.104Z,11.97
2018-06-28T09:24:18.949Z,34.60
2018-06-28T09:27:20.614Z,25.67
2018-06-28T09:30:22.380Z,14.80
2018-06-28T09:33:23.984Z,12.17
2018-06-28T09:36:25.650Z,10.57
2018-06-28T09:39:27.380Z,9.23
2018-06-28T09:42:29.196Z,10.30
2018-06-28T09:45:30.834Z,8.60
2018-06-28T09:48:32.604Z,8.63
2018-06-28T09:51:34.138Z,9.83
2018-06-28T09:54:35.815Z,9.03
2018-06-28T09:57:37.396Z,7.77
2018-06-28T10:00:44.135Z,8.10
2018-06-28T10:03:45.695Z,8.53
2018-06-28T10:06:47.406Z,9.20
2018-06-28T10:09:49.149Z,8.30
2018-06-28T10:12:50.896Z,7.80
2018-06-28T10:15:52.527Z,8.57
2018-06-28T10:18:54.336Z,8.87
2018-06-28T10:21:55.896Z,9.93
2018-06-28T10:24:57.650Z,12.07
2018-06-28T10:27:59.248Z,10.27
2018-06-28T10:31:00.849Z,11.33
2018-06-28T10:34:02.586Z,10.00
2018-06-28T10:37:04.375Z,11.20
2018-06-28T10:40:05.959Z,14.00
2018-06-28T10:43:07.715Z,12.27
2018-06-28T10:46:12.243Z,11.43
2018-06-28T10:49:14.080Z,16.30
2018-06-28T10:52:15.729Z,19.80
2018-06-28T10:55:17.598Z,20.07
2018-06-28T10:58:19.137Z,18.47
2018-06-28T11:01:20.942Z,24.97
2018-06-28T11:04:22.498Z,31.13
2018-06-28T11:07:24.331Z,34.37
2018-06-28T11:10:25.863Z,21.70
2018-06-28T11:13:27.635Z,16.47
2018-06-28T11:16:29.063Z,17.80
2018-06-28T11:19:30.715Z,15.77
2018-06-28T11:22:32.378Z,14.17
2018-06-28T11:25:34.161Z,12.77
2018-06-28T11:28:36.631Z,11.53
2018-06-28T11:31:38.341Z,16.40
2018-06-28T11:34:39.998Z,17.03
2018-06-28T11:37:41.967Z,15.67
2018-06-28T11:40:43.379Z,15.57
2018-06-28T11:43:45.088Z,13.80
2018-06-28T11:46:46.718Z,13.40
2018-06-28T11:49:48.565Z,13.23
2018-06-28T11:52:50.082Z,13.77
2018-06-28T11:55:51.832Z,14.33
2018-06-28T11:58:53.386Z,12.83
2018-06-28T12:01:55.187Z,11.97
2018-06-28T12:04:57.547Z,12.33
2018-06-28T12:07:51.306Z,12.90
2018-06-28T12:10:44.829Z,10.27
2018-06-28T12:13:46.563Z,10.80
2018-06-28T12:16:48.122Z,9.30
2018-06-28T12:19:49.931Z,9.87
2018-06-28T12:22:52.407Z,9.67
2018-06-28T12:25:54.111Z,8.80
2018-06-28T12:28:55.955Z,11.40
2018-06-28T12:31:57.690Z,11.67
2018-06-28T12:34:59.202Z,10.20
2018-06-28T12:38:01.079Z,11.30
2018-06-28T12:41:02.802Z,9.83
2018-06-28T12:44:04.557Z,9.07
2018-06-28T12:48:23.059Z,10.77
2018-06-28T12:51:24.741Z,9.47
2018-06-28T12:54:26.507Z,8.57
2018-06-28T12:57:28.243Z,9.53
2018-06-28T13:00:29.952Z,7.83
2018-06-28T13:03:31.597Z,8.03
2018-06-28T13:06:33.245Z,8.77
2018-06-28T13:09:35.919Z,8.97
2018-06-28T13:12:37.701Z,8.23
2018-06-28T13:15:40.468Z,7.37
2018-06-28T13:18:42.057Z,8.03
2018-06-28T13:21:45.109Z,10.20
2018-06-28T13:24:49.690Z,5.60
2018-06-28T13:27:51.312Z,5.80
2018-06-28T13:30:53.025Z,6.67
2018-06-28T13:33:54.723Z,7.67
2018-06-28T13:36:56.325Z,8.00
2018-06-28T13:44:04.608Z,6.63
2018-06-28T13:46:39.868Z,6.00
2018-06-28T13:49:12.494Z,5.50
2018-06-28T13:51:44.671Z,6.10
2018-06-28T13:54:17.332Z,10.20
2018-06-28T13:56:54.064Z,9.47
2018-06-28T13:59:27.142Z,18.90
2018-06-28T14:02:03.162Z,13.27
2018-06-28T14:04:35.272Z,8.70
2018-06-28T14:07:07.266Z,6.50
2018-06-28T14:09:39.207Z,6.60
2018-06-28T14:12:11.219Z,6.47
2018-06-28T14:14:43.062Z,7.20
2018-06-28T14:17:33.369Z,8.17
2018-06-28T14:20:05.793Z,8.57
2018-06-28T14:22:37.827Z,10.67
2018-06-28T14:25:10.383Z,7.40
2018-06-28T14:27:42.477Z,7.20
2018-06-28T14:30:15.237Z,7.47
2018-06-28T14:32:47.746Z,6.50
2018-06-28T14:35:20.192Z,6.80
2018-06-28T14:37:52.338Z,11.43
2018-06-28T14:40:25.536Z,9.03
2018-06-28T14:42:57.631Z,8.10
2018-06-28T14:45:29.606Z,7.60
2018-06-28T14:48:03.268Z,8.30
2018-06-28T14:50:35.187Z,7.80
2018-06-28T14:53:09.255Z,9.27
2018-06-28T14:55:41.359Z,7.47
2018-06-28T14:58:13.977Z,8.77
2018-06-28T15:00:45.849Z,8.97
2018-06-28T15:03:17.795Z,8.23
2018-06-28T15:05:50.653Z,9.53
2018-06-28T15:08:22.581Z,9.33
2018-06-28T15:10:54.831Z,8.93
2018-06-28T15:13:27.116Z,9.83
2018-06-28T15:15:58.983Z,7.57
2018-06-28T15:18:31.733Z,10.37
2018-06-28T15:21:04.427Z,9.47
2018-06-28T15:23:36.435Z,12.87
2018-06-28T15:26:09.416Z,9.40
2018-06-28T15:28:43.211Z,10.33
2018-06-28T15:31:16.300Z,8.20
2018-06-28T15:33:53.014Z,9.80
2018-06-28T15:36:25.547Z,9.87
2018-06-28T15:38:57.939Z,8.50
2018-06-28T15:41:29.794Z,8.20
2018-06-28T15:44:05.072Z,7.87
2018-06-28T15:46:38.456Z,7.90
2018-06-28T15:49:11.502Z,8.93
2018-06-28T15:51:45.563Z,9.43
2018-06-28T15:54:18.093Z,8.97
2018-06-28T15:56:49.899Z,9.27
2018-06-28T15:59:21.964Z,9.47
2018-06-28T16:01:54.014Z,11.57
2018-06-28T16:04:26.507Z,11.17
2018-06-28T16:06:58.461Z,9.20
2018-06-28T16:09:31.581Z,8.23
2018-06-28T16:12:03.818Z,8.83
2018-06-28T16:14:35.884Z,8.47
2018-06-28T16:17:08.262Z,7.60
2018-06-28T16:19:40.316Z,9.03
2018-06-28T16:22:12.403Z,10.17
2018-06-28T16:24:44.388Z,9.93
2018-06-28T16:27:17.886Z,13.57
2018-06-28T16:29:50.083Z,12.07
2018-06-28T16:32:22.422Z,10.07
2018-06-28T16:34:54.336Z,10.07
2018-06-28T16:37:26.206Z,7.33
2018-06-28T16:39:58.160Z,8.73
2018-06-28T16:42:30.074Z,8.53
2018-06-28T16:45:02.403Z,10.57
2018-06-28T16:47:34.580Z,9.93
2018-06-28T16:50:06.892Z,12.03
2018-06-28T16:52:38.882Z,7.43
2018-06-28T16:55:10.834Z,8.77
2018-06-28T16:57:42.910Z,7.57
2018-06-28T17:00:14.937Z,7.37
2018-06-28T17:02:50.249Z,9.47
2018-06-28T17:05:23.161Z,12.40
2018-06-28T17:07:57.884Z,11.40
2018-06-28T17:10:32.378Z,9.23
2018-06-28T17:13:05.356Z,15.67
2018-06-28T17:15:37.652Z,13.57
2018-06-28T17:18:10.189Z,8.13
2018-06-28T17:20:43.252Z,9.60
2018-06-28T17:23:17.495Z,10.50
2018-06-28T17:25:50.849Z,11.43
2018-06-28T17:28:23.136Z,8.70
2018-06-28T17:30:55.642Z,9.07
2018-06-28T17:33:28.481Z,11.97
2018-06-28T17:36:00.906Z,13.03
2018-06-28T17:38:42.322Z,9.13
2018-06-28T17:41:14.795Z,10.60
2018-06-28T17:46:41.847Z,8.17
2018-06-28T17:49:15.204Z,8.87
2018-06-28T17:51:51.587Z,7.30
2018-06-28T17:54:23.449Z,9.10
2018-06-28T17:56:56.139Z,10.90
2018-06-28T17:59:42.756Z,9.80
2018-06-28T18:02:15.858Z,10.07
2018-06-28T18:04:48.641Z,8.37
2018-06-28T18:07:20.781Z,11.00
2018-06-28T18:09:53.338Z,7.97
2018-06-28T18:12:26.563Z,11.30
2018-06-28T18:14:58.547Z,8.03
2018-06-28T18:17:30.688Z,8.37
2018-06-28T18:20:04.290Z,8.27
2018-06-28T18:22:36.848Z,10.23
2018-06-28T18:25:09.734Z,9.60
2018-06-28T18:27:50.956Z,9.20
2018-06-28T18:30:24.001Z,8.10
2018-06-28T18:33:00.029Z,10.43
2018-06-28T18:35:32.077Z,9.10
2018-06-28T18:38:09.649Z,8.33
2018-06-28T18:40:43.019Z,10.53
2018-06-28T18:43:15.978Z,9.03
2018-06-28T18:46:14.551Z,9.87
2018-06-28T18:52:18.298Z,11.70
2018-06-28T18:54:54.952Z,14.00
2018-06-28T18:57:28.902Z,20.73
2018-06-28T19:00:02.547Z,9.77
2018-06-28T19:02:35.977Z,10.70
2018-06-28T19:05:09.872Z,10.23
2018-06-28T19:07:42.674Z,12.97
2018-06-28T19:10:18.941Z,12.33
2018-06-28T19:12:57.514Z,10.87
2018-06-28T19:15:34.690Z,11.37
2018-06-28T19:18:09.002Z,13.07
2018-06-28T19:20:42.344Z,13.43
2018-06-28T19:23:33.258Z,9.73
2018-06-28T19:26:08.583Z,13.97
2018-06-28T19:28:49.386Z,10.77
2018-06-28T19:31:28.367Z,18.13
2018-06-28T19:34:04.410Z,13.33
2018-06-28T19:36:36.799Z,9.87
2018-06-28T19:39:15.325Z,10.67
2018-06-28T19:41:51.760Z,16.50
2018-06-28T19:44:24.308Z,13.77
2018-06-28T19:46:57.083Z,15.33
2018-06-28T19:49:33.557Z,10.03
2018-06-28T19:52:11.238Z,9.33
2018-06-28T19:55:09.780Z,9.63
2018-06-28T19:57:42.853Z,8.17
2018-06-28T20:00:19.989Z,10.67
2018-06-28T20:02:56.313Z,8.73
2018-06-28T20:05:28.836Z,10.67
2018-06-28T20:08:02.559Z,9.23
2018-06-28T20:10:36.350Z,9.57
2018-06-28T20:13:14.274Z,9.83
2018-06-28T20:15:55.860Z,10.00
2018-06-28T20:18:33.069Z,8.50
2018-06-28T20:21:05.154Z,11.37
2018-06-28T20:23:37.059Z,11.53
2018-06-28T22:04:42.523Z,7.67
2018-06-28T22:07:28.271Z,9.17
2018-06-28T22:10:05.837Z,7.87
2018-06-28T22:12:46.505Z,9.17
2018-06-28T22:15:41.686Z,8.73
2018-06-28T22:18:15.465Z,8.50
2018-06-28T22:20:47.759Z,9.13
2018-06-28T22:23:23.569Z,8.83
2018-06-28T22:25:57.616Z,9.83
2018-06-28T22:28:31.297Z,11.17
2018-06-28T22:31:08.314Z,9.17
2018-06-28T22:33:48.193Z,7.13
2018-06-28T22:36:21.164Z,8.53
2018-06-28T22:38:54.580Z,9.10
2018-06-28T22:41:31.117Z,7.60
2018-06-28T22:44:03.299Z,8.53
2018-06-28T22:46:47.582Z,7.40
2018-06-28T22:49:23.222Z,8.40
2018-06-28T22:52:00.025Z,9.40
2018-06-28T22:54:34.175Z,10.80
2018-06-28T22:57:08.025Z,9.60
2018-06-28T22:59:42.706Z,9.50
2018-06-28T23:02:14.976Z,9.33
2018-06-28T23:04:48.257Z,9.93
2018-06-28T23:07:20.561Z,9.80
2018-06-28T23:10:00.241Z,11.40
2018-06-28T23:12:33.628Z,10.80
2018-06-28T23:15:07.032Z,10.00
2018-06-28T23:17:40.302Z,9.77
2018-06-28T23:20:13.027Z,9.03
2018-06-28T23:22:49.228Z,10.87
2018-06-28T23:25:22.070Z,8.60
2018-06-28T23:27:56.730Z,9.70
2018-06-28T23:30:31.355Z,9.50
2018-06-28T23:33:04.362Z,10.17
2018-06-28T23:35:43.689Z,9.93
2018-06-28T23:38:18.089Z,7.83
2018-06-28T23:40:55.828Z,8.73
2018-06-28T23:43:34.840Z,10.70
2018-06-28T23:46:13.591Z,12.07
2018-06-28T23:48:59.067Z,8.37
2018-06-28T23:51:31.313Z,9.73
2018-06-28T23:54:05.529Z,10.67
2018-06-28T23:56:40.148Z,8.70
2018-06-28T23:59:16.243Z,10.17
